Seffner, Florida
Current Conditions -  °F | °C
As of 2:55 PM on Thursday 30 Oct 2014 (Local Time) from KVDF Reporting Station
Overcast Overcast  
Wind Chill: 81°   Ceiling: 10000
Heat Index: 82°   Visibility: 10mi
Dew Point: 64°   Wind: 5mph
Humidity: 58%   Direction: 350°N
Pressure: 29.91"   Gusts: NA
Location:  27.98°N, 82.3°W
Report Text: KVDF 301855Z AUTO 35004KT 10SM SCT041 OVC100 27/18 A2991 RMK AO2
Loading
Personal Weather Stations






























Interactive Weather Map
Tropical Storm Tracking
New forecast layout! Learn more

10-Day Weather Forecast

Advertisements
Track Severe Weather on mobile